createdAt,value
2018-08-12T00:00:43.842Z,14.30
2018-08-12T00:03:17.136Z,14.30
2018-08-12T00:05:46.214Z,14.20
2018-08-12T00:08:18.997Z,14.20
2018-08-12T00:10:47.988Z,14.20
2018-08-12T00:13:19.777Z,14.20
2018-08-12T00:15:48.941Z,14.20
2018-08-12T00:18:21.767Z,14.20
2018-08-12T00:31:23.702Z,13.90
2018-08-12T00:33:52.694Z,14.00
2018-08-12T00:36:25.454Z,13.90
2018-08-12T00:38:55.466Z,13.90
2018-08-12T00:41:29.125Z,13.80
2018-08-12T00:44:01.357Z,13.70
2018-08-12T00:46:33.544Z,13.60
2018-08-12T00:49:03.520Z,13.60
2018-08-12T00:51:35.368Z,13.50
2018-08-12T00:54:04.839Z,13.40
2018-08-12T00:56:38.206Z,13.40
2018-08-12T00:59:07.152Z,13.40
2018-08-12T01:01:39.926Z,13.40
2018-08-12T01:04:09.045Z,13.40
2018-08-12T01:06:41.622Z,13.30
2018-08-12T01:09:13.316Z,13.30
2018-08-12T01:11:46.130Z,13.30
2018-08-12T01:14:15.196Z,13.20
2018-08-12T01:16:47.979Z,13.10
2018-08-12T01:19:17.097Z,13.10
2018-08-12T01:21:49.779Z,13.20
2018-08-12T01:24:18.707Z,13.30
2018-08-12T01:26:51.525Z,13.40
2018-08-12T01:29:21.462Z,13.40
2018-08-12T01:31:54.219Z,13.20
2018-08-12T01:34:23.278Z,13.30
2018-08-12T01:36:56.903Z,13.20
2018-08-12T01:39:25.878Z,13.00
2018-08-12T01:41:59.617Z,13.00
2018-08-12T01:44:32.543Z,13.10
2018-08-12T01:47:05.921Z,13.10
2018-08-12T01:49:34.927Z,13.20
2018-08-12T01:52:07.804Z,13.20
2018-08-12T01:54:37.549Z,13.00
2018-08-12T01:57:09.617Z,12.80
2018-08-12T01:59:39.433Z,12.70
2018-08-12T02:02:13.060Z,12.60
2018-08-12T02:04:42.020Z,12.60
2018-08-12T02:07:14.968Z,12.50
2018-08-12T02:09:44.540Z,12.40
2018-08-12T02:12:17.571Z,12.30
2018-08-12T02:14:47.313Z,12.30
2018-08-12T02:17:21.328Z,12.30
2018-08-12T02:19:50.266Z,12.20
2018-08-12T02:22:22.978Z,12.20
2018-08-12T02:24:51.890Z,12.10
2018-08-12T02:27:23.812Z,12.10
2018-08-12T02:29:53.497Z,12.10
2018-08-12T02:32:25.581Z,12.10
2018-08-12T02:34:54.610Z,12.10
2018-08-12T02:37:26.612Z,12.10
2018-08-12T02:39:55.636Z,12.00
2018-08-12T02:42:30.142Z,12.10
2018-08-12T02:45:02.186Z,12.00
2018-08-12T02:47:35.598Z,12.00
2018-08-12T02:50:05.288Z,11.90
2018-08-12T02:52:38.186Z,11.80
2018-08-12T02:55:08.469Z,11.80
2018-08-12T02:57:41.835Z,11.80
2018-08-12T03:00:12.655Z,11.80
2018-08-12T03:02:46.273Z,11.80
2018-08-12T03:05:15.498Z,11.80
2018-08-12T03:07:48.956Z,11.70
2018-08-12T03:10:18.126Z,11.60
2018-08-12T03:12:54.740Z,11.70
2018-08-12T03:15:24.467Z,11.80
2018-08-12T03:17:57.146Z,11.90
2018-08-12T03:20:26.025Z,11.80
2018-08-12T03:22:58.279Z,11.70
2018-08-12T03:25:28.230Z,11.80
2018-08-12T03:28:00.671Z,11.80
2018-08-12T03:30:30.617Z,11.80
2018-08-12T03:33:02.537Z,11.80
2018-08-12T03:35:31.562Z,11.80
2018-08-12T03:38:05.384Z,11.80
2018-08-12T03:40:34.458Z,11.80
2018-08-12T03:43:07.669Z,11.70
2018-08-12T03:45:41.014Z,11.60
2018-08-12T03:48:14.311Z,11.60
2018-08-12T03:50:43.852Z,11.60
2018-08-12T03:53:15.993Z,11.60
2018-08-12T03:55:44.973Z,11.70
2018-08-12T03:58:17.759Z,11.90
2018-08-12T04:00:46.756Z,12.00
2018-08-12T04:03:19.605Z,12.00
2018-08-12T04:05:49.225Z,12.00
2018-08-12T04:08:22.311Z,12.10
2018-08-12T04:10:51.283Z,12.10
2018-08-12T04:13:24.059Z,12.10
2018-08-12T04:15:53.130Z,12.20
2018-08-12T04:18:25.860Z,12.30
2018-08-12T04:20:56.076Z,12.30
2018-08-12T04:23:28.560Z,12.40
2018-08-12T04:25:58.186Z,12.40
2018-08-12T04:28:31.177Z,12.50
2018-08-12T04:31:00.363Z,12.60
2018-08-12T04:33:32.109Z,12.60
2018-08-12T04:36:01.233Z,12.60
2018-08-12T04:38:32.980Z,12.60
2018-08-12T04:41:01.954Z,12.60
2018-08-12T04:43:34.745Z,12.70
2018-08-12T04:46:07.886Z,12.70
2018-08-12T04:48:41.126Z,12.70
2018-08-12T04:51:11.990Z,12.80
2018-08-12T04:53:44.701Z,12.80
2018-08-12T04:56:13.721Z,12.90
2018-08-12T04:58:47.406Z,12.90
2018-08-12T05:01:16.352Z,13.00
2018-08-12T05:03:50.312Z,13.00
2018-08-12T05:06:19.979Z,13.10
2018-08-12T05:08:52.770Z,13.20
2018-08-12T05:11:21.803Z,13.20
2018-08-12T05:13:55.107Z,13.30
2018-08-12T05:16:24.028Z,13.30
2018-08-12T05:18:57.211Z,13.40
2018-08-12T05:21:26.053Z,13.50
2018-08-12T05:23:58.068Z,13.60
2018-08-12T05:26:27.225Z,13.70
2018-08-12T05:28:59.053Z,13.80
2018-08-12T05:31:28.117Z,13.90
2018-08-12T05:33:59.875Z,14.00
2018-08-12T05:36:28.563Z,14.10
2018-08-12T05:39:00.735Z,14.20
2018-08-12T05:41:29.461Z,14.30
2018-08-12T05:44:01.585Z,14.40
2018-08-12T05:46:34.516Z,14.60
2018-08-12T05:49:06.177Z,14.70
2018-08-12T05:51:35.005Z,14.80
2018-08-12T05:54:07.022Z,15.00
2018-08-12T05:56:35.785Z,15.00
2018-08-12T05:59:07.893Z,15.10
2018-08-12T06:01:36.594Z,15.20
2018-08-12T06:04:09.909Z,15.20
2018-08-12T06:06:39.774Z,15.30
2018-08-12T06:09:14.855Z,15.40
2018-08-12T06:11:44.342Z,15.40
2018-08-12T06:14:16.898Z,15.50
2018-08-12T06:16:46.117Z,15.60
2018-08-12T06:19:18.719Z,15.70
2018-08-12T06:21:47.867Z,15.90
2018-08-12T06:24:21.386Z,16.00
2018-08-12T06:26:50.602Z,16.10
2018-08-12T06:29:23.186Z,16.20
2018-08-12T06:31:52.380Z,16.30
2018-08-12T06:34:25.136Z,16.40
2018-08-12T06:36:54.330Z,16.40
2018-08-12T06:39:30.677Z,16.60
2018-08-12T06:41:59.781Z,16.70
2018-08-12T06:44:33.162Z,16.70
2018-08-12T06:47:06.184Z,16.80
2018-08-12T06:49:39.430Z,17.00
2018-08-12T06:52:10.588Z,17.00
2018-08-12T06:54:43.457Z,17.20
2018-08-12T06:57:13.394Z,17.60
2018-08-12T06:59:45.835Z,17.80
2018-08-12T07:02:15.788Z,18.00
2018-08-12T07:04:50.004Z,18.20
2018-08-12T07:07:31.448Z,18.40
2018-08-12T07:10:04.717Z,18.50
2018-08-12T07:12:35.086Z,18.80
2018-08-12T07:15:09.402Z,19.00
2018-08-12T07:17:40.386Z,19.40
2018-08-12T07:20:26.868Z,19.60
2018-08-12T07:23:04.395Z,20.00
2018-08-12T07:25:39.292Z,20.50
2018-08-12T07:28:09.658Z,20.60
2018-08-12T07:30:43.770Z,21.00
2018-08-12T07:33:16.856Z,21.10
2018-08-12T16:08:38.625Z,21.40
2018-08-12T16:11:07.600Z,27.30
2018-08-12T16:13:49.255Z,27.00
2018-08-12T16:16:18.637Z,27.00
2018-08-12T16:18:51.041Z,26.70
2018-08-12T16:21:20.023Z,26.70
2018-08-12T16:23:53.002Z,26.40
2018-08-12T16:26:22.543Z,26.20
2018-08-12T16:28:55.640Z,26.20
2018-08-12T16:31:24.584Z,26.00
2018-08-12T16:33:56.697Z,26.10
2018-08-12T16:36:25.503Z,25.90
2018-08-12T16:38:57.213Z,25.70
2018-08-12T16:41:26.130Z,25.80
2018-08-12T16:43:58.145Z,25.70
2018-08-12T16:46:27.104Z,25.70
2018-08-12T16:48:59.025Z,25.40
2018-08-12T16:51:28.162Z,25.60
2018-08-12T16:54:01.661Z,25.60
2018-08-12T16:56:30.667Z,25.50
2018-08-12T16:59:03.436Z,25.20
2018-08-12T17:01:32.656Z,25.30
2018-08-12T17:04:04.349Z,25.10
2018-08-12T17:06:33.029Z,25.30
2018-08-12T17:09:12.447Z,25.10
2018-08-12T17:11:41.412Z,25.10
2018-08-12T17:14:13.382Z,25.00
2018-08-12T17:16:42.299Z,24.90
2018-08-12T17:19:14.303Z,24.90
2018-08-12T17:21:43.149Z,24.70
2018-08-12T17:24:15.744Z,24.70
2018-08-12T17:26:45.111Z,24.70
2018-08-12T17:29:18.881Z,24.40
2018-08-12T17:31:48.584Z,24.30
2018-08-12T17:34:20.533Z,24.30
2018-08-12T17:36:49.780Z,24.40
2018-08-12T17:39:49.048Z,24.30
2018-08-12T17:42:29.676Z,24.10
2018-08-12T17:48:13.492Z,24.10
2018-08-12T17:51:04.858Z,24.00
2018-08-12T17:57:23.946Z,23.70
2018-08-12T18:07:15.367Z,23.30
2018-08-12T18:09:59.711Z,23.00
2018-08-12T18:12:28.927Z,22.80
2018-08-12T18:15:01.069Z,22.70
2018-08-12T18:17:30.087Z,22.60
2018-08-12T18:20:02.892Z,22.40
2018-08-12T18:22:31.881Z,22.30
2018-08-12T18:25:05.630Z,22.10
2018-08-12T18:27:34.820Z,21.90
2018-08-12T18:30:10.060Z,21.90
2018-08-12T18:32:39.939Z,21.70
2018-08-12T18:35:13.743Z,21.50
2018-08-12T18:37:43.050Z,21.30
2018-08-12T18:40:16.372Z,21.20
2018-08-12T18:42:45.207Z,21.10
2018-08-12T18:45:17.430Z,21.00
2018-08-12T18:47:46.850Z,21.00
2018-08-12T18:50:19.002Z,20.90
2018-08-12T18:52:48.450Z,20.80
2018-08-12T18:55:21.720Z,20.70
2018-08-12T18:57:50.790Z,20.50
2018-08-12T19:00:23.637Z,20.40
2018-08-12T19:02:52.766Z,20.30
2018-08-12T19:05:25.522Z,20.40
2018-08-12T19:07:56.908Z,20.30
2018-08-12T19:10:32.624Z,20.20
2018-08-12T19:13:02.347Z,20.20
2018-08-12T19:15:35.407Z,20.20
2018-08-12T19:18:05.577Z,20.20
2018-08-12T19:20:40.251Z,20.10
2018-08-12T19:23:09.729Z,20.10
2018-08-12T19:25:43.759Z,20.00
2018-08-12T19:28:14.108Z,20.10
2018-08-12T19:30:47.955Z,20.00
2018-08-12T19:33:17.514Z,20.00
2018-08-12T19:35:49.656Z,19.90
2018-08-12T19:38:20.107Z,19.90
2018-08-12T19:40:53.320Z,19.90
2018-08-12T19:43:22.649Z,19.90
2018-08-12T19:45:55.882Z,19.70
2018-08-12T19:48:25.312Z,19.50
2018-08-12T19:50:58.676Z,19.40
2018-08-12T19:53:28.252Z,19.30
2018-08-12T19:56:00.649Z,19.10
2018-08-12T19:58:30.079Z,19.10
2018-08-12T20:01:04.887Z,19.00
2018-08-12T20:03:34.104Z,19.00
2018-08-12T20:06:07.665Z,18.90
2018-08-12T20:08:38.556Z,18.80
2018-08-12T20:11:15.774Z,18.60
2018-08-12T20:13:44.903Z,18.60
2018-08-12T20:16:21.344Z,18.50
2018-08-12T20:18:50.534Z,18.40
2018-08-12T20:21:23.885Z,18.50
2018-08-12T20:23:53.311Z,18.40
2018-08-12T20:26:25.629Z,18.30
2018-08-12T20:28:55.222Z,18.20
2018-08-12T20:31:27.483Z,18.00
2018-08-12T20:33:56.387Z,18.00
2018-08-12T20:36:29.281Z,18.00
2018-08-12T20:38:58.092Z,18.00
2018-08-12T20:41:30.164Z,18.00
2018-08-12T20:43:59.521Z,18.00
2018-08-12T20:46:32.798Z,17.90
2018-08-12T20:49:01.940Z,17.90
2018-08-12T20:51:34.479Z,17.70
2018-08-12T20:54:03.894Z,17.70
2018-08-12T20:56:36.346Z,17.70
2018-08-12T20:59:06.383Z,17.60
2018-08-12T21:01:39.985Z,17.50
2018-08-12T21:04:09.083Z,17.40
2018-08-12T21:06:42.573Z,17.40
2018-08-12T21:09:12.791Z,17.30
2018-08-12T21:11:50.039Z,17.20
2018-08-12T21:14:19.611Z,17.20
2018-08-12T21:16:52.626Z,17.10
2018-08-12T21:19:22.378Z,17.10
2018-08-12T21:21:54.441Z,17.10
2018-08-12T21:24:23.652Z,17.00
2018-08-12T21:26:56.141Z,17.00
2018-08-12T21:29:25.284Z,17.00
2018-08-12T21:31:58.891Z,16.90
2018-08-12T21:34:28.023Z,16.90
2018-08-12T21:37:00.678Z,16.80
2018-08-12T21:39:29.903Z,16.80
2018-08-12T21:42:02.386Z,16.80
2018-08-12T21:44:31.785Z,16.80
2018-08-12T21:47:06.044Z,16.80
2018-08-12T21:49:36.261Z,16.80
2018-08-12T21:52:08.692Z,16.60
2018-08-12T21:54:38.134Z,16.60
2018-08-12T21:57:10.645Z,16.50
2018-08-12T21:59:39.847Z,16.50
2018-08-12T22:02:12.403Z,16.40
2018-08-12T22:04:41.478Z,16.30
2018-08-12T22:07:14.937Z,16.30
2018-08-12T22:09:44.037Z,16.20
2018-08-12T22:12:22.215Z,16.30
2018-08-12T22:14:52.009Z,16.20
2018-08-12T22:17:24.892Z,16.10
2018-08-12T22:19:54.051Z,16.00
2018-08-12T22:22:26.648Z,16.00
2018-08-12T22:24:55.713Z,16.00
2018-08-12T22:27:28.441Z,15.90
2018-08-12T22:29:57.687Z,15.80
2018-08-12T22:32:30.167Z,15.80
2018-08-12T22:34:59.297Z,15.70
2018-08-12T22:37:32.894Z,15.60
2018-08-12T22:40:02.621Z,15.60
2018-08-12T22:42:35.684Z,15.50
2018-08-12T22:45:05.434Z,15.50
2018-08-12T22:47:37.334Z,15.40
2018-08-12T22:50:07.897Z,15.40
2018-08-12T22:52:41.034Z,15.40
2018-08-12T22:55:10.079Z,15.50
2018-08-12T22:57:42.739Z,15.40
2018-08-12T23:00:15.915Z,15.30
2018-08-12T23:02:48.295Z,15.30
2018-08-12T23:05:17.810Z,15.20
2018-08-12T23:07:51.801Z,15.10
2018-08-12T23:10:21.109Z,15.10
2018-08-12T23:12:59.005Z,15.00
2018-08-12T23:16:38.293Z,15.00
2018-08-12T23:19:11.521Z,15.00
2018-08-12T23:21:40.731Z,15.00
2018-08-12T23:24:13.214Z,14.90
2018-08-12T23:26:42.337Z,14.90
2018-08-12T23:29:15.902Z,14.80
2018-08-12T23:31:44.976Z,14.80
2018-08-12T23:34:17.760Z,14.80
2018-08-12T23:36:46.858Z,14.70
2018-08-12T23:39:19.498Z,14.70
2018-08-12T23:41:48.672Z,14.70
2018-08-12T23:44:21.263Z,14.60
2018-08-12T23:46:50.205Z,14.60
2018-08-12T23:49:24.472Z,14.50
2018-08-12T23:51:53.871Z,14.50
2018-08-12T23:54:26.663Z,14.40
2018-08-12T23:56:56.597Z,14.40
2018-08-12T23:59:28.470Z,14.30
